Nearby METAR Reports

 

LEVC - Valencia (civ/Mi, Spain
Distacia desde Piles: NO 69km
Actu.: 20/09/2018 19:30
Few Clouds
Few Clouds
 Viento del ESE
Viento: ESE 11 km/h
Temperatura: 26°C
Rocío: 20°C
Humedad: 70%
Barómetro: 1017 hPa
Clouds: Few Clouds
Visibility: 10 km
Cloud details: Few Clouds 1067 m
2018/09/20 17:30 LEVC 201730Z 11006KT 9999 FEW035 26/20 Q1017 NOSIG
LEAL - Alicante/El Alte, Spain
Distacia desde Piles: SSO 94km
Actu.: 20/09/2018 19:30
Despejado
Despejado
 Viento del ESE
Viento: ESE 9 km/h
Temperatura: 27°C
Heat Index: 28°C
Rocío: 19°C
Humedad: 62%
Barómetro: 1018 hPa
Resumen: Despejado
Visibility: greater than 10 km
2018/09/20 17:30 LEAL 201730Z 11005KT 080V150 CAVOK 27/19 Q1018 NOSIG
 
LEIB - Ibiza/Es Codola, Spain
Distacia desde Piles: E 119km
Actu.: 20/09/2018 19:30
Few Clouds
Few Clouds
 Viento del S
Viento: S 6 km/h
Temperatura: 25°C
Rocío: 20°C
Humedad: 74%
Barómetro: 1018 hPa
Clouds: Few Clouds
Visibility: 10 km
Cloud details: Few Clouds 792 m
2018/09/20 17:30 LEIB 201730Z 17003KT 120V200 9999 FEW026 25/20 Q1018 NOSIG
LELC - San Javier(Mil/C, Spain
Distacia desde Piles: SSO 154km
Actu.: 20/09/2018 19:30
Despejado
Despejado
 Viento del SE
Viento: SE 11 km/h
Temperatura: 26°C
Rocío: 21°C
Humedad: 74%
Barómetro: 1017 hPa
Resumen: Despejado
Visibility: greater than 10 km
2018/09/20 17:30 LELC 201730Z 13006KT 100V160 CAVOK 26/21 Q1017 NOSIG
 
LERI - Alcantarilla(Sp-, Spain
Distacia desde Piles: SO 158km
Actu.: 20/09/2018 19:00
Despejado
Despejado
 Viento del SO
Viento: SO 9 km/h
Temperatura: 28°C
Heat Index: 29°C
Rocío: 20°C
Humedad: 62%
Barómetro: 1017 hPa
Resumen: Despejado
Visibility: greater than 10 km
2018/09/20 17:00 LERI 201700Z 22005KT 160V270 CAVOK 28/20 Q1017 NOSIG
LEAB - Albacete (civ/Mi, Spain
Distacia desde Piles: O 160km
Actu.: 20/09/2018 19:00
Few Clouds
Few Clouds
 Viento del varies
Viento: varies 4 km/h
Temperatura: 29°C
Rocío: 11°C
Humedad: 33%
Barómetro: 1020 hPa
Clouds: Few Clouds
Visibility: 10 km
Cloud details: Few Clouds 1494 m
2018/09/20 17:00 LEAB 201700Z VRB02KT 9999 FEW049 29/11 Q1020 NOSIG